Time;durP1;ratioP1;P1;durP2;ratioP2;P2;SDS_P1;SDS_P2;PMS_P1;PMS_P2;Temp;Humidity;BMP_temperature;BMP_pressure;BME280_temperature;BME280_humidity;BME280_pressure;Samples;Min_cycle;Max_cycle;Signal;HPM_P1;HPM_P2
2021/05/31 00:01:32;;;;;;;5.82;5.32;;;;;;;15.47;81.11;98803.44;5111308;28;20414;-88
2021/05/31 00:03:57;;;;;;;6.07;4.93;;;;;;;15.42;81.25;98803.59;5111278;28;20028;-89
2021/05/31 00:06:23;;;;;;;5.53;4.47;;;;;;;15.35;81.28;98801.34;5111179;28;20059;-89
2021/05/31 00:08:48;;;;;;;4.72;4.32;;;;;;;15.26;81.79;98800.53;5111387;28;20106;-85
2021/05/31 00:11:14;;;;;;;5.82;4.80;;;;;;;15.14;82.13;98795.75;5111295;28;20099;-87
2021/05/31 00:13:39;;;;;;;6.80;4.60;;;;;;;15.03;82.00;98796.03;5111535;28;20108;-89
2021/05/31 00:16:05;;;;;;;5.00;4.50;;;;;;;14.98;82.22;98798.88;5111486;28;20020;-89
2021/05/31 00:18:30;;;;;;;5.20;4.43;;;;;;;15.00;82.86;98799.34;5112178;28;20629;-84
2021/05/31 00:20:56;;;;;;;4.30;3.72;;;;;;;15.02;83.57;98802.50;5111476;28;20025;-86
2021/05/31 00:23:21;;;;;;;5.25;4.35;;;;;;;15.09;83.43;98806.66;5111252;28;20022;-85
2021/05/31 00:25:47;;;;;;;6.55;4.50;;;;;;;15.07;83.43;98801.59;5111562;28;20037;-85
2021/05/31 00:28:13;;;;;;;4.20;3.80;;;;;;;15.09;83.53;98803.97;5110620;28;20035;-86
2021/05/31 00:30:40;;;;;;;5.55;4.43;;;;;;;15.11;83.64;98801.75;5110449;28;20027;-84
2021/05/31 00:33:05;;;;;;;5.68;5.18;;;;;;;15.12;83.70;98800.66;5110613;28;20106;-85
2021/05/31 00:35:31;;;;;;;6.55;5.93;;;;;;;15.16;83.20;98802.41;5110906;28;20119;-77
2021/05/31 00:37:57;;;;;;;7.60;6.80;;;;;;;15.19;83.07;98801.00;5117350;28;20490;-88
2021/05/31 00:40:24;;;;;;;7.25;6.50;;;;;;;15.24;82.97;98803.53;5112502;28;20024;-88
2021/05/31 00:42:50;;;;;;;6.88;6.18;;;;;;;15.26;82.31;98801.34;5110467;28;20023;-82
2021/05/31 00:45:16;;;;;;;7.07;6.18;;;;;;;15.28;81.83;98795.63;5110613;28;20019;-86
2021/05/31 00:47:42;;;;;;;7.65;6.70;;;;;;;15.28;81.95;98792.94;5110193;28;20542;-83
2021/05/31 00:50:08;;;;;;;7.65;6.82;;;;;;;15.25;82.19;98794.34;5110495;28;20080;-83
2021/05/31 00:52:34;;;;;;;8.07;7.28;;;;;;;15.26;81.63;98785.16;5110528;28;20127;-79
2021/05/31 00:55:00;;;;;;;8.18;6.70;;;;;;;15.25;82.31;98782.81;5110188;28;20027;-80
2021/05/31 00:57:27;;;;;;;9.38;8.35;;;;;;;15.23;82.11;98775.00;5110135;28;20026;-78
2021/05/31 00:59:52;;;;;;;8.23;7.38;;;;;;;15.18;82.04;98775.97;5110224;28;20066;-79
2021/05/31 01:02:18;;;;;;;10.35;7.22;;;;;;;15.16;81.96;98775.47;5109988;28;20118;-77
2021/05/31 01:04:44;;;;;;;9.23;8.10;;;;;;;15.15;82.05;98773.88;5110252;28;20030;-87
2021/05/31 01:07:24;;;;;;;11.50;7.50;;;;;;;15.14;82.30;98783.06;5110214;28;20450;-82
2021/05/31 01:10:25;;;;;;;9.23;7.20;;;;;;;15.16;82.00;98777.38;5110262;28;20092;-84
2021/05/31 01:13:16;;;;;;;7.55;6.85;;;;;;;15.12;82.08;98777.19;5110086;28;20375;-83
2021/05/31 01:15:56;;;;;;;10.93;6.82;;;;;;;15.07;82.53;98777.34;5110115;28;20485;-82
2021/05/31 01:18:31;;;;;;;8.10;7.28;;;;;;;15.04;82.42;98772.59;5094176;28;20032;-83
2021/05/31 01:21:15;;;;;;;8.43;7.55;;;;;;;15.05;82.84;98776.88;5110186;28;20027;-83
2021/05/31 01:23:43;;;;;;;7.47;6.72;;;;;;;15.00;82.54;98768.91;5110189;28;20019;-83
2021/05/31 01:26:23;;;;;;;8.57;5.93;;;;;;;14.99;82.83;98768.16;5109408;28;20482;-79
2021/05/31 01:29:06;;;;;;;7.00;6.30;;;;;;;15.00;82.71;98777.00;5110219;28;20023;-80
2021/05/31 01:31:31;;;;;;;8.15;6.80;;;;;;;15.00;82.69;98766.22;5109795;28;20023;-80
2021/05/31 01:33:58;;;;;;;8.50;6.90;;;;;;;15.00;81.79;98769.72;5109927;28;20489;-80
2021/05/31 01:36:25;;;;;;;6.60;6.00;;;;;;;14.97;81.73;98764.19;5109766;28;20503;-83
2021/05/31 01:38:52;;;;;;;7.60;6.47;;;;;;;14.93;81.80;98764.00;5110053;28;20027;-85
2021/05/31 01:41:19;;;;;;;7.07;6.38;;;;;;;14.89;81.93;98765.72;5109059;28;20466;-84
2021/05/31 01:43:46;;;;;;;10.35;7.95;;;;;;;14.88;81.30;98758.75;5110052;28;20023;-82
2021/05/31 01:46:13;;;;;;;7.60;6.82;;;;;;;14.85;81.62;98770.16;5109527;28;20016;-78
2021/05/31 01:48:39;;;;;;;9.23;7.30;;;;;;;14.79;81.32;98766.78;5109694;28;20459;-81
2021/05/31 01:51:05;;;;;;;8.10;7.30;;;;;;;14.75;81.83;98767.75;5109352;28;20092;-80
2021/05/31 01:53:33;;;;;;;8.13;7.30;;;;;;;14.73;81.46;98763.47;5110016;28;20012;-78
2021/05/31 01:55:58;;;;;;;7.40;6.32;;;;;;;14.68;81.51;98766.28;5109854;28;20089;-80
2021/05/31 01:58:25;;;;;;;10.68;7.07;;;;;;;14.65;81.00;98769.59;5109315;28;20035;-79
2021/05/31 02:00:51;;;;;;;6.95;6.25;;;;;;;14.62;81.38;98764.78;5109891;28;20023;-79
2021/05/31 02:03:17;;;;;;;6.95;6.30;;;;;;;14.57;81.16;98762.22;5109296;28;20126;-80
2021/05/31 02:05:42;;;;;;;7.57;6.45;;;;;;;14.55;81.36;98759.06;5109614;28;20023;-83
2021/05/31 02:08:08;;;;;;;6.65;5.90;;;;;;;14.53;81.62;98758.59;5109616;28;20027;-84
2021/05/31 02:10:33;;;;;;;9.55;7.43;;;;;;;14.49;81.18;98766.47;5109734;28;20028;-84
2021/05/31 02:13:01;;;;;;;6.82;6.13;;;;;;;14.45;81.49;98762.00;5109795;28;20024;-84
2021/05/31 02:15:41;;;;;;;6.47;5.88;;;;;;;14.42;81.67;98768.81;5109302;28;20019;-85
2021/05/31 02:18:09;;;;;;;6.88;6.18;;;;;;;14.39;81.52;98761.34;5109386;28;20034;-84
2021/05/31 02:20:36;;;;;;;7.35;6.65;;;;;;;14.37;81.82;98764.34;5109495;28;20033;-78
2021/05/31 02:23:04;;;;;;;6.18;5.57;;;;;;;14.38;81.41;98757.88;5112805;28;20020;-79
2021/05/31 02:25:31;;;;;;;7.63;6.18;;;;;;;14.38;82.07;98762.47;5113087;28;20417;-81
2021/05/31 02:27:58;;;;;;;9.30;5.75;;;;;;;14.32;81.93;98756.41;5112503;28;20075;-80
2021/05/31 02:30:25;;;;;;;6.60;5.10;;;;;;;14.27;81.16;98758.44;5112740;28;20023;-80
2021/05/31 02:32:58;;;;;;;4.72;4.28;;;;;;;14.20;81.24;98765.03;5113091;28;20020;-79
2021/05/31 02:35:25;;;;;;;5.38;4.88;;;;;;;14.14;80.82;98758.19;5112218;28;20027;-79
2021/05/31 02:37:51;;;;;;;5.45;4.75;;;;;;;14.09;81.29;98766.41;5112530;28;20042;-78
2021/05/31 02:40:17;;;;;;;6.07;5.40;;;;;;;14.04;81.23;98763.84;5112772;28;20034;-81
2021/05/31 02:42:58;;;;;;;5.68;4.60;;;;;;;13.97;81.53;98768.84;5112096;28;20497;-79
2021/05/31 02:45:25;;;;;;;6.10;4.80;;;;;;;13.91;81.81;98758.22;5112344;28;20035;-78
2021/05/31 02:47:53;;;;;;;6.40;4.90;;;;;;;13.90;81.79;98761.19;5112938;28;20100;-78
2021/05/31 02:50:19;;;;;;;7.43;5.28;;;;;;;13.85;81.43;98759.41;5112790;28;20504;-81
2021/05/31 02:52:44;;;;;;;6.63;4.85;;;;;;;13.83;81.87;98766.19;5112799;28;20122;-85
2021/05/31 02:55:17;;;;;;;5.63;4.25;;;;;;;13.74;81.77;98764.25;5113057;28;20172;-85
2021/05/31 02:57:43;;;;;;;5.72;4.93;;;;;;;13.68;82.03;98764.66;5112856;28;20012;-84
2021/05/31 03:00:11;;;;;;;5.57;4.85;;;;;;;13.64;82.63;98756.41;5112036;28;20031;-82
2021/05/31 03:02:36;;;;;;;5.45;4.50;;;;;;;13.61;82.23;98748.97;5112390;28;20064;-83
2021/05/31 03:05:04;;;;;;;5.57;4.50;;;;;;;13.57;81.89;98762.22;5112988;28;20592;-82
2021/05/31 03:07:29;;;;;;;6.10;4.68;;;;;;;13.51;82.17;98757.22;5112383;28;20027;-79
2021/05/31 03:09:55;;;;;;;6.13;4.43;;;;;;;13.47;82.18;98765.09;5111798;28;20460;-79
2021/05/31 03:12:21;;;;;;;7.70;5.30;;;;;;;13.40;82.55;98770.91;5112271;28;20022;-80
2021/05/31 03:14:46;;;;;;;6.32;5.22;;;;;;;13.35;82.76;98768.25;5112447;28;20053;-76
2021/05/31 03:17:12;;;;;;;5.13;4.63;;;;;;;13.34;83.03;98772.06;5112208;28;20080;-76
2021/05/31 03:19:37;;;;;;;6.63;4.68;;;;;;;13.31;83.17;98763.81;5111542;28;20470;-76
2021/05/31 03:22:03;;;;;;;4.95;4.18;;;;;;;13.29;83.25;98767.59;5112344;28;20065;-76
2021/05/31 03:24:29;;;;;;;7.05;4.82;;;;;;;13.30;83.19;98765.69;5113600;28;20027;-76
2021/05/31 03:26:54;;;;;;;6.07;5.28;;;;;;;13.35;83.07;98772.84;5113363;28;20097;-76
2021/05/31 03:29:19;;;;;;;6.20;5.15;;;;;;;13.37;83.00;98765.28;5111846;28;20028;-76
2021/05/31 03:31:45;;;;;;;5.68;4.85;;;;;;;13.37;83.06;98767.97;5111828;28;20027;-75
2021/05/31 03:34:10;;;;;;;6.53;5.07;;;;;;;13.29;83.18;98764.91;5109306;28;20020;-75
2021/05/31 03:36:36;;;;;;;6.22;5.13;;;;;;;13.26;83.17;98754.75;5109529;28;20147;-75
2021/05/31 03:39:04;;;;;;;5.95;5.10;;;;;;;13.27;83.40;98761.72;5111990;28;20467;-75
2021/05/31 03:41:30;;;;;;;6.13;5.25;;;;;;;13.23;83.32;98760.75;5111922;28;20027;-75
2021/05/31 03:43:55;;;;;;;5.47;4.75;;;;;;;13.21;83.80;98764.81;5107722;28;20072;-75
2021/05/31 03:46:21;;;;;;;7.78;4.93;;;;;;;13.17;83.62;98753.06;5111026;28;20100;-76
2021/05/31 03:48:46;;;;;;;6.15;5.50;;;;;;;13.17;83.57;98774.56;5111385;28;20031;-78
2021/05/31 03:51:12;;;;;;;5.53;4.47;;;;;;;13.11;83.13;98755.88;5111070;28;20032;-80
2021/05/31 03:53:39;;;;;;;4.93;4.32;;;;;;;13.07;83.60;98771.00;5111274;28;20034;-78
2021/05/31 03:56:06;;;;;;;5.75;4.45;;;;;;;13.05;84.02;98773.19;5111417;28;20081;-84
2021/05/31 03:58:33;;;;;;;5.18;4.60;;;;;;;13.04;83.80;98763.53;5111403;28;20024;-84
2021/05/31 04:01:00;;;;;;;6.28;5.15;;;;;;;13.01;83.97;98768.69;5111327;28;20118;-86
2021/05/31 04:03:27;;;;;;;5.63;4.78;;;;;;;12.99;83.76;98769.00;5111338;28;20023;-78
2021/05/31 04:11:36;;;;;;;4.68;4.13;;;;;;;12.97;84.18;98771.19;5112234;28;20038;-86
2021/05/31 04:14:22;;;;;;;4.88;4.38;;;;;;;12.96;84.71;98774.97;5111285;28;20110;-86
2021/05/31 04:16:52;;;;;;;4.78;4.28;;;;;;;12.99;84.30;98766.31;5110509;28;20036;-85
2021/05/31 04:19:20;;;;;;;6.60;4.53;;;;;;;12.98;84.02;98765.50;5110734;28;20483;-79
2021/05/31 04:21:47;;;;;;;;;;;;;;;13.02;83.97;98768.41;5111375;28;20055;-79
2021/05/31 04:24:13;;;;;;;6.22;4.50;;;;;;;12.98;84.63;98760.13;5111097;28;19904;-83
2021/05/31 04:26:40;;;;;;;4.95;4.28;;;;;;;12.94;83.88;98767.22;5109383;28;20046;-85
2021/05/31 04:29:08;;;;;;;4.43;3.83;;;;;;;12.96;84.37;98765.03;5110337;28;20023;-85
2021/05/31 04:31:35;;;;;;;4.93;4.20;;;;;;;12.91;84.05;98775.06;5111618;28;20576;-85
2021/05/31 04:34:01;;;;;;;5.57;4.07;;;;;;;12.91;84.35;98772.38;5111569;28;20270;-85
2021/05/31 04:36:28;;;;;;;5.10;4.07;;;;;;;12.91;84.48;98772.38;5110525;28;20019;-85
2021/05/31 04:38:54;;;;;;;4.53;4.13;;;;;;;12.91;84.51;98775.84;5110855;28;20030;-86
2021/05/31 04:41:19;;;;;;;6.75;4.82;;;;;;;12.96;84.75;98774.97;5110881;28;20458;-85
2021/05/31 04:43:45;;;;;;;5.00;4.50;;;;;;;12.96;84.69;98783.81;5110796;28;20417;-86
2021/05/31 04:46:10;;;;;;;4.40;4.00;;;;;;;12.95;84.56;98771.50;5110423;28;20015;-86
2021/05/31 04:48:36;;;;;;;4.13;3.72;;;;;;;12.95;84.36;98776.03;5110569;28;20450;-86
2021/05/31 04:51:04;;;;;;;5.85;4.03;;;;;;;12.95;84.79;98776.84;5110943;28;20027;-85
2021/05/31 04:53:30;;;;;;;4.15;3.75;;;;;;;12.91;84.29;98786.59;5110506;28;20489;-86
2021/05/31 04:55:57;;;;;;;6.03;4.25;;;;;;;12.92;84.69;98782.81;5110927;28;20024;-86
2021/05/31 04:58:24;;;;;;;4.40;4.00;;;;;;;12.89;84.30;98787.97;5112150;28;20023;-86
2021/05/31 05:00:50;;;;;;;4.43;3.50;;;;;;;12.88;84.81;98783.72;5111884;28;20038;-86
2021/05/31 05:03:19;;;;;;;6.68;3.40;;;;;;;12.84;85.13;98788.88;5112022;28;20517;-87
2021/05/31 05:05:45;;;;;;;4.80;3.83;;;;;;;12.85;84.87;98784.31;5113777;28;20015;-86
2021/05/31 05:08:11;;;;;;;3.88;3.30;;;;;;;12.87;84.69;98787.50;5114482;28;20038;-86
2021/05/31 05:10:36;;;;;;;4.40;3.97;;;;;;;12.89;84.69;98785.28;5114154;28;20019;-86
2021/05/31 05:13:02;;;;;;;5.50;4.18;;;;;;;12.87;84.86;98792.88;5114014;28;20041;-86
2021/05/31 05:15:28;;;;;;;5.18;3.90;;;;;;;12.89;85.45;98794.16;5113589;28;20019;-86
2021/05/31 05:17:54;;;;;;;5.85;3.88;;;;;;;12.89;85.18;98793.34;5113728;28;20023;-86
2021/05/31 05:20:22;;;;;;;4.20;3.65;;;;;;;12.89;84.60;98790.66;5113085;28;20055;-86
2021/05/31 05:22:48;;;;;;;3.20;3.00;;;;;;;12.86;84.49;98794.75;5114310;28;20045;-86
2021/05/31 05:25:14;;;;;;;5.40;4.25;;;;;;;12.87;84.34;98788.28;5111487;28;20439;-85
2021/05/31 05:27:42;;;;;;;5.22;3.88;;;;;;;12.86;84.67;98796.63;5110833;28;20509;-85
2021/05/31 05:30:09;;;;;;;4.20;3.75;;;;;;;12.85;84.48;98790.47;5112206;28;20107;-88
2021/05/31 05:32:36;;;;;;;4.28;3.45;;;;;;;12.85;84.89;98800.41;5110285;28;20027;-86
2021/05/31 05:35:14;;;;;;;4.78;3.65;;;;;;;12.84;85.57;98805.00;5110379;28;20455;-87
2021/05/31 05:37:54;;;;;;;3.95;3.55;;;;;;;12.80;85.24;98804.78;5110391;28;20187;-87
2021/05/31 05:43:22;;;;;;;5.70;4.57;;;;;;;12.84;85.41;98799.63;5111643;28;20387;-86
2021/05/31 05:48:13;;;;;;;4.68;4.10;;;;;;;12.83;84.98;98792.66;5111557;28;20031;-86
2021/05/31 05:50:39;;;;;;;4.50;4.10;;;;;;;12.87;85.28;98801.69;5109860;28;20123;-86
2021/05/31 05:53:04;;;;;;;4.55;3.70;;;;;;;12.90;85.41;98800.31;5110102;28;20022;-85
2021/05/31 05:55:30;;;;;;;3.67;3.35;;;;;;;12.91;85.51;98807.28;5109876;28;20489;-85
2021/05/31 05:57:55;;;;;;;4.20;3.80;;;;;;;12.93;85.57;98799.72;5113341;28;20462;-85
2021/05/31 06:00:24;;;;;;;4.10;3.40;;;;;;;12.92;86.14;98803.50;5113829;28;20026;-86
2021/05/31 06:02:50;;;;;;;3.88;3.53;;;;;;;12.92;86.00;98801.59;5113969;28;20027;-85
2021/05/31 06:05:16;;;;;;;3.60;3.17;;;;;;;12.92;85.36;98806.19;5114038;28;20026;-85
2021/05/31 06:07:42;;;;;;;4.43;3.28;;;;;;;12.92;85.84;98790.09;5113671;28;20489;-85
2021/05/31 06:10:08;;;;;;;3.22;2.92;;;;;;;12.94;85.52;98793.28;5114100;28;20031;-85
2021/05/31 06:12:34;;;;;;;3.83;3.40;;;;;;;12.96;85.24;98799.13;5113778;28;20023;-86
2021/05/31 06:15:00;;;;;;;3.50;3.20;;;;;;;12.97;85.69;98798.84;5114276;28;20011;-86
2021/05/31 06:17:25;;;;;;;4.15;2.97;;;;;;;12.98;85.90;98800.41;5115802;28;20035;-86
2021/05/31 06:19:51;;;;;;;3.55;3.25;;;;;;;13.05;85.55;98797.34;5117448;28;20020;-85
2021/05/31 06:22:17;;;;;;;3.35;2.75;;;;;;;13.06;86.03;98792.75;5116217;28;20118;-85
2021/05/31 06:24:44;;;;;;;3.08;2.78;;;;;;;13.07;85.52;98792.47;5114221;28;20028;-86
2021/05/31 06:27:10;;;;;;;2.25;2.05;;;;;;;13.11;85.89;98792.69;5113402;28;20067;-86
2021/05/31 06:29:35;;;;;;;3.20;2.90;;;;;;;13.13;85.75;98788.59;5113339;28;20055;-86
2021/05/31 06:32:01;;;;;;;3.72;2.80;;;;;;;13.18;85.59;98790.34;5113649;28;20054;-86
2021/05/31 06:34:26;;;;;;;3.45;2.40;;;;;;;13.22;85.42;98787.88;5113388;28;20020;-86
2021/05/31 06:36:55;;;;;;;2.00;1.90;;;;;;;13.23;85.92;98794.84;5113306;28;20027;-86
2021/05/31 06:39:21;;;;;;;3.80;2.50;;;;;;;13.24;86.21;98791.06;5113459;28;20023;-86
2021/05/31 06:41:47;;;;;;;2.53;2.33;;;;;;;13.25;86.23;98790.75;5113167;28;20031;-85
2021/05/31 06:44:13;;;;;;;2.45;1.92;;;;;;;13.28;85.78;98798.22;5113170;28;20098;-86
2021/05/31 06:46:38;;;;;;;2.13;1.83;;;;;;;13.29;86.18;98794.44;5114264;28;20426;-86
2021/05/31 06:49:04;;;;;;;2.08;1.90;;;;;;;13.30;85.25;98803.28;5112960;28;20023;-88
2021/05/31 06:51:30;;;;;;;2.38;2.08;;;;;;;13.29;85.81;98799.81;5112709;28;20390;-87
2021/05/31 06:53:55;;;;;;;2.63;2.05;;;;;;;13.26;85.38;98797.72;5112881;28;20019;-86
2021/05/31 06:56:23;;;;;;;3.83;2.83;;;;;;;13.25;85.68;98809.56;5112840;28;20020;-86
2021/05/31 06:58:48;;;;;;;6.13;2.28;;;;;;;13.24;86.01;98801.81;5112840;28;20118;-86
2021/05/31 07:01:14;;;;;;;1.88;1.70;;;;;;;13.23;85.56;98803.72;5112768;28;20091;-87
2021/05/31 07:03:39;;;;;;;2.28;2.08;;;;;;;13.24;85.81;98805.31;5112715;28;20024;-84
2021/05/31 07:06:05;;;;;;;1.80;1.70;;;;;;;13.19;85.67;98810.75;5112807;28;20114;-85
2021/05/31 07:08:31;;;;;;;2.85;2.65;;;;;;;13.19;85.87;98809.97;5112234;28;20019;-85
2021/05/31 07:10:59;;;;;;;3.47;2.30;;;;;;;13.18;85.64;98824.47;5112636;28;20114;-85
2021/05/31 07:13:26;;;;;;;2.22;2.00;;;;;;;13.18;86.14;98819.91;5112311;28;20106;-85
2021/05/31 07:15:52;;;;;;;2.15;2.05;;;;;;;13.16;85.91;98815.91;5112489;28;20030;-86
2021/05/31 07:18:19;;;;;;;2.75;2.13;;;;;;;13.14;86.13;98816.22;5112606;28;20020;-86
2021/05/31 07:20:46;;;;;;;2.78;2.25;;;;;;;13.16;86.16;98822.09;5112168;28;20055;-86
2021/05/31 07:23:12;;;;;;;3.13;2.05;;;;;;;13.20;86.78;98819.63;5112434;28;20035;-86
2021/05/31 07:25:37;;;;;;;2.30;2.00;;;;;;;13.21;86.82;98818.53;5111973;28;20031;-86
2021/05/31 07:28:03;;;;;;;2.10;1.90;;;;;;;13.22;86.71;98818.22;5111949;28;20075;-85
2021/05/31 07:30:29;;;;;;;3.05;2.47;;;;;;;13.25;86.69;98824.88;5112093;28;20088;-86
2021/05/31 07:32:54;;;;;;;3.08;1.92;;;;;;;13.24;86.53;98818.72;5112209;28;20040;-87
2021/05/31 07:35:20;;;;;;;2.33;2.13;;;;;;;13.26;86.50;98813.84;5112080;28;20027;-86
2021/05/31 07:37:45;;;;;;;2.22;2.03;;;;;;;13.29;86.48;98820.50;5111897;28;20080;-85
2021/05/31 07:40:14;;;;;;;2.50;2.20;;;;;;;13.31;86.18;98828.28;5112144;28;20050;-86
2021/05/31 07:42:39;;;;;;;;;;;;;;;13.34;85.89;98823.09;5112204;28;20024;-86
2021/05/31 07:45:07;;;;;;;4.13;3.05;;;;;;;13.38;85.71;98817.94;5111944;28;19911;-86
2021/05/31 07:47:32;;;;;;;2.72;2.53;;;;;;;13.31;85.17;98812.16;5111375;28;20183;-86
2021/05/31 07:49:58;;;;;;;3.42;2.88;;;;;;;13.36;85.92;98820.88;5111903;28;20482;-86
2021/05/31 07:52:28;;;;;;;2.70;2.50;;;;;;;13.35;85.17;98816.59;5112102;28;20028;-86
2021/05/31 07:54:54;;;;;;;2.63;2.10;;;;;;;13.36;85.49;98820.88;5115739;28;20065;-88
2021/05/31 07:57:21;;;;;;;4.45;2.55;;;;;;;13.33;85.58;98810.75;5112392;28;20035;-88
2021/05/31 07:59:49;;;;;;;5.35;2.72;;;;;;;13.36;85.46;98815.53;5111999;28;20039;-87
2021/05/31 08:02:14;;;;;;;2.72;2.53;;;;;;;13.39;85.96;98806.09;5111854;28;20089;-87
2021/05/31 08:04:40;;;;;;;2.67;2.45;;;;;;;13.40;85.86;98807.69;5111348;28;20027;-87
2021/05/31 08:07:08;;;;;;;3.80;2.85;;;;;;;13.39;86.00;98803.41;5112076;28;20027;-87
2021/05/31 08:09:33;;;;;;;3.50;3.22;;;;;;;13.43;85.84;98807.88;5111599;28;20011;-87
2021/05/31 08:11:59;;;;;;;3.47;3.10;;;;;;;13.48;85.64;98808.88;5113246;28;20410;-86
2021/05/31 08:14:25;;;;;;;2.83;2.63;;;;;;;13.47;85.66;98815.34;5111611;28;20054;-87
2021/05/31 08:16:51;;;;;;;3.92;2.83;;;;;;;13.48;85.97;98812.34;5111019;28;20059;-87
2021/05/31 08:19:17;;;;;;;2.92;2.72;;;;;;;13.52;85.48;98817.94;5110802;28;20023;-87
2021/05/31 08:21:43;;;;;;;3.08;2.75;;;;;;;13.54;85.71;98816.53;5111240;28;20024;-87
2021/05/31 08:24:09;;;;;;;3.13;2.67;;;;;;;13.54;85.80;98810.38;5111375;28;20028;-89
2021/05/31 08:26:36;;;;;;;4.35;2.90;;;;;;;13.57;85.38;98815.13;5110962;28;20048;-88
2021/05/31 08:29:02;;;;;;;4.15;2.92;;;;;;;13.58;85.17;98817.50;5111064;28;20028;-89
2021/05/31 08:31:28;;;;;;;3.40;2.88;;;;;;;13.66;85.44;98812.50;5110611;28;20050;-89
2021/05/31 08:33:53;;;;;;;3.70;3.40;;;;;;;13.65;85.58;98805.56;5111142;28;20027;-89
2021/05/31 08:36:20;;;;;;;3.03;2.80;;;;;;;13.71;85.29;98813.22;5111022;28;20038;-89
2021/05/31 08:38:46;;;;;;;4.13;2.90;;;;;;;13.73;85.76;98804.84;5110914;28;20069;-89
2021/05/31 08:41:11;;;;;;;4.30;3.45;;;;;;;13.80;85.73;98815.19;5110890;28;20062;-88
2021/05/31 08:43:37;;;;;;;3.85;3.35;;;;;;;13.83;84.72;98809.19;5110824;28;20490;-88
2021/05/31 08:46:02;;;;;;;3.35;2.90;;;;;;;13.81;84.02;98808.72;5110945;28;20112;-88
2021/05/31 08:48:28;;;;;;;3.10;2.80;;;;;;;13.82;84.38;98815.66;5110802;28;20413;-89
2021/05/31 08:50:54;;;;;;;5.22;3.53;;;;;;;13.81;84.46;98811.41;5110723;28;20034;-88
2021/05/31 08:53:20;;;;;;;5.13;3.72;;;;;;;13.83;84.08;98801.13;5110811;28;20031;-88
2021/05/31 08:55:46;;;;;;;7.50;4.53;;;;;;;13.82;83.85;98805.72;5110464;28;20024;-89
2021/05/31 08:58:11;;;;;;;78.35;38.97;;;;;;;13.88;84.24;98801.03;5110683;28;20020;-88
2021/05/31 09:00:37;;;;;;;67.45;27.20;;;;;;;13.93;84.15;98801.69;5110434;28;20459;-88
2021/05/31 09:03:11;;;;;;;22.92;13.43;;;;;;;13.95;83.90;98803.28;5110594;28;20027;-89
2021/05/31 09:05:44;;;;;;;129.75;53.13;;;;;;;14.01;84.58;98802.06;5110331;28;20097;-89
2021/05/31 09:08:20;;;;;;;11.40;8.50;;;;;;;14.07;84.30;98792.78;5110507;28;20024;-89
2021/05/31 09:10:51;;;;;;;23.70;12.07;;;;;;;14.15;84.35;98793.97;5110355;28;20019;-89
2021/05/31 09:13:31;;;;;;;9.05;6.97;;;;;;;14.21;84.52;98793.53;5110458;28;20023;-88
2021/05/31 09:16:06;;;;;;;14.27;8.00;;;;;;;14.24;84.69;98795.63;5110467;28;20050;-88
2021/05/31 09:18:33;;;;;;;20.25;12.45;;;;;;;14.34;85.01;98791.06;5110284;28;20030;-88
2021/05/31 09:21:27;;;;;;;3.95;3.58;;;;;;;14.46;83.76;98788.59;5111070;28;20122;-88
2021/05/31 09:24:01;;;;;;;4.70;3.30;;;;;;;14.52;83.36;98782.00;5110368;28;20031;-89
2021/05/31 09:26:28;;;;;;;6.57;3.05;;;;;;;14.57;82.54;98787.25;5110204;28;20543;-89
2021/05/31 09:28:57;;;;;;;5.03;3.20;;;;;;;14.64;82.67;98778.72;5110065;28;20019;-89
2021/05/31 09:31:25;;;;;;;3.83;3.05;;;;;;;14.67;82.37;98780.84;5111494;28;20027;-88
2021/05/31 09:33:59;;;;;;;3.92;2.42;;;;;;;14.73;82.30;98786.88;5114540;28;20023;-89
2021/05/31 09:36:25;;;;;;;3.10;2.80;;;;;;;14.76;81.83;98785.47;5114262;28;20028;-90
2021/05/31 09:38:51;;;;;;;3.97;3.25;;;;;;;14.79;82.01;98784.84;5114147;28;20031;-88
2021/05/31 09:41:42;;;;;;;8.10;4.55;;;;;;;14.84;81.52;98785.50;5114519;28;20038;-87
2021/05/31 09:44:09;;;;;;;2.30;2.10;;;;;;;14.85;80.14;98775.53;5114030;28;20027;-88
2021/05/31 09:46:38;;;;;;;1.63;1.52;;;;;;;14.85;79.70;98779.00;5114159;28;20023;-88
2021/05/31 09:49:13;;;;;;;2.42;2.22;;;;;;;14.84;79.64;98776.63;5114224;28;20032;-87
2021/05/31 09:51:55;;;;;;;2.97;2.60;;;;;;;14.84;79.70;98771.25;5113944;28;20031;-87
2021/05/31 09:54:27;;;;;;;2.30;2.10;;;;;;;14.82;78.60;98776.16;5114188;28;20148;-88
2021/05/31 09:56:53;;;;;;;2.53;2.33;;;;;;;14.81;79.16;98772.66;5113761;28;20046;-89
2021/05/31 09:59:19;;;;;;;3.38;3.08;;;;;;;14.80;79.17;98772.97;5113840;28;20475;-88
2021/05/31 10:01:45;;;;;;;2.88;2.60;;;;;;;14.78;79.57;98777.88;5113898;28;20402;-88
2021/05/31 10:09:17;;;;;;;4.05;3.45;;;;;;;14.73;80.29;98768.03;5115160;28;20024;-88
2021/05/31 10:11:45;;;;;;;3.47;3.17;;;;;;;14.67;79.97;98762.00;5113662;28;20477;-88
2021/05/31 10:14:13;;;;;;;3.67;3.37;;;;;;;14.68;80.21;98760.09;5113492;28;20027;-88
2021/05/31 10:16:40;;;;;;;4.05;3.75;;;;;;;14.67;80.54;98764.69;5113280;28;20281;-89
2021/05/31 10:19:06;;;;;;;4.60;4.18;;;;;;;14.69;80.91;98761.69;5116826;28;20073;-89
2021/05/31 10:21:32;;;;;;;3.70;3.40;;;;;;;14.66;80.63;98760.41;5115910;28;20020;-89
2021/05/31 10:23:57;;;;;;;4.25;3.85;;;;;;;14.67;80.93;98748.56;5113653;28;20032;-87
2021/05/31 10:26:27;;;;;;;4.30;3.33;;;;;;;14.68;80.30;98752.84;5113355;28;20569;-89
2021/05/31 10:28:53;;;;;;;3.63;3.33;;;;;;;14.70;80.36;98747.91;5113733;28;20102;-87
2021/05/31 10:31:19;;;;;;;4.32;3.92;;;;;;;14.71;79.46;98743.34;5113738;28;20058;-86
2021/05/31 10:33:45;;;;;;;3.83;3.53;;;;;;;14.68;80.20;98747.44;5113472;28;20019;-88
2021/05/31 10:36:19;;;;;;;5.72;3.50;;;;;;;14.68;80.12;98746.63;5113435;28;20031;-87
2021/05/31 10:38:48;;;;;;;4.25;3.17;;;;;;;14.71;80.09;98746.03;5113237;28;20077;-87
2021/05/31 10:41:20;;;;;;;3.72;3.33;;;;;;;14.72;80.06;98751.09;5113277;28;20023;-87
2021/05/31 10:43:48;;;;;;;4.90;3.53;;;;;;;14.66;79.92;98746.16;5112408;28;20039;-87
2021/05/31 10:46:18;;;;;;;4.28;3.33;;;;;;;14.69;79.20;98742.84;5113294;28;20118;-88
2021/05/31 10:48:46;;;;;;;4.10;3.70;;;;;;;14.68;79.09;98739.38;5112975;28;20027;-88
2021/05/31 10:51:15;;;;;;;5.90;3.53;;;;;;;14.72;79.21;98747.59;5113126;28;20123;-87
2021/05/31 10:53:41;;;;;;;3.80;3.40;;;;;;;14.72;79.30;98742.22;5114250;28;20024;-88
2021/05/31 10:56:30;;;;;;;5.72;3.40;;;;;;;14.71;79.13;98740.66;5113258;28;20424;-89
2021/05/31 10:58:57;;;;;;;4.45;3.50;;;;;;;14.76;79.46;98737.00;5102021;28;20063;-88
2021/05/31 11:01:25;;;;;;;3.67;3.38;;;;;;;14.80;79.51;98738.78;5113408;28;20024;-88
2021/05/31 11:04:02;;;;;;;;;;;;;;;14.84;80.70;98745.13;5113756;28;20020;-87
2021/05/31 11:06:33;;;;;;;4.15;3.33;;;;;;;14.87;78.95;98731.03;5125129;28;19904;-89
2021/05/31 11:09:09;;;;;;;4.00;3.60;;;;;;;14.86;79.49;98729.44;5134931;28;20019;-88
2021/05/31 11:11:48;;;;;;;3.88;3.45;;;;;;;14.84;79.60;98731.69;5133676;28;20028;-89
2021/05/31 11:14:16;;;;;;;4.05;3.33;;;;;;;14.85;79.28;98733.22;5131621;28;20024;-88
2021/05/31 11:16:56;;;;;;;3.92;3.63;;;;;;;14.89;79.82;98734.22;5121937;28;20049;-88
2021/05/31 11:19:41;;;;;;;4.85;4.38;;;;;;;14.95;80.32;98736.75;5117613;28;20038;-87
2021/05/31 11:22:26;;;;;;;4.90;4.28;;;;;;;14.96;80.46;98722.97;5115198;28;20027;-88
2021/05/31 11:24:53;;;;;;;3.75;3.35;;;;;;;14.97;79.41;98729.94;5113947;28;20034;-88
2021/05/31 11:27:50;;;;;;;3.90;3.50;;;;;;;15.02;79.59;98727.09;5113509;28;20383;-88
2021/05/31 11:30:19;;;;;;;2.70;2.50;;;;;;;15.05;79.28;98725.72;5112693;28;20036;-89
2021/05/31 11:32:45;;;;;;;3.05;2.60;;;;;;;15.07;79.70;98728.88;5113102;28;20387;-88
2021/05/31 11:35:15;;;;;;;3.67;3.35;;;;;;;15.15;80.20;98720.03;5112860;28;20023;-89
2021/05/31 11:37:42;;;;;;;5.10;2.60;;;;;;;15.23;79.66;98715.75;5112186;28;20432;-88
2021/05/31 11:40:24;;;;;;;4.18;3.05;;;;;;;15.27;79.90;98715.91;5112569;28;20483;-89
2021/05/31 11:42:55;;;;;;;3.50;3.20;;;;;;;15.40;78.58;98709.59;5112980;28;20092;-88
2021/05/31 11:45:23;;;;;;;3.45;2.75;;;;;;;15.45;79.35;98704.06;5112517;28;20428;-89
2021/05/31 11:47:59;;;;;;;2.33;2.13;;;;;;;15.56;78.04;98703.72;5111977;28;20092;-89
2021/05/31 11:50:27;;;;;;;2.67;2.42;;;;;;;15.61;78.21;98707.06;5112508;28;20122;-88
2021/05/31 11:52:52;;;;;;;3.50;2.45;;;;;;;15.69;76.86;98705.47;5112264;28;20020;-89
2021/05/31 11:55:22;;;;;;;2.30;2.15;;;;;;;15.73;76.68;98706.41;5111554;28;20487;-89